createdAt,value
2022-11-16T00:00:13.653Z,992.05
2022-11-16T00:01:13.799Z,992.09
2022-11-16T00:02:14.553Z,992.08
2022-11-16T00:03:15.081Z,992.08
2022-11-16T00:04:14.220Z,992.17
2022-11-16T00:05:14.360Z,992.05
2022-11-16T00:06:15.518Z,992.11
2022-11-16T00:07:14.846Z,992.10
2022-11-16T00:08:15.499Z,992.07
2022-11-16T00:09:15.117Z,992.04
2022-11-16T00:10:15.250Z,992.06
2022-11-16T00:11:15.398Z,992.10
2022-11-16T00:12:15.586Z,992.06
2022-11-16T00:13:16.498Z,992.04
2022-11-16T00:14:15.878Z,992.06
2022-11-16T00:15:16.054Z,992.02
2022-11-16T00:16:16.249Z,992.01
2022-11-16T00:17:16.406Z,992.01
2022-11-16T00:18:16.571Z,992.04
2022-11-16T00:19:16.735Z,991.97
2022-11-16T00:20:16.886Z,991.97
2022-11-16T00:21:17.511Z,992.00
2022-11-16T00:22:17.299Z,992.01
2022-11-16T00:23:17.468Z,991.95
2022-11-16T00:24:17.646Z,992.00
2022-11-16T00:25:17.812Z,991.91
2022-11-16T00:26:17.998Z,991.98
2022-11-16T00:27:18.202Z,991.97
2022-11-16T00:28:18.396Z,991.94
2022-11-16T00:29:18.575Z,991.86
2022-11-16T00:30:18.738Z,991.90
2022-11-16T00:31:19.501Z,991.89
2022-11-16T00:32:20.054Z,991.87
2022-11-16T00:33:19.346Z,991.87
2022-11-16T00:34:19.497Z,991.84
2022-11-16T00:35:19.637Z,991.85
2022-11-16T00:36:19.810Z,991.84
2022-11-16T00:37:19.978Z,991.82
2022-11-16T00:38:20.166Z,991.85
2022-11-16T00:39:21.009Z,991.90
2022-11-16T00:40:20.468Z,991.93
2022-11-16T00:41:20.688Z,991.90
2022-11-16T00:42:21.507Z,991.87
2022-11-16T00:43:22.001Z,991.86
2022-11-16T00:44:21.516Z,991.84
2022-11-16T00:45:21.470Z,991.84
2022-11-16T00:46:21.654Z,991.81
2022-11-16T00:47:21.858Z,991.81
2022-11-16T00:48:23.015Z,991.89
2022-11-16T00:49:22.268Z,991.88
2022-11-16T00:50:22.452Z,991.88
2022-11-16T00:51:23.542Z,991.83
2022-11-16T00:52:22.830Z,991.78
2022-11-16T00:53:22.987Z,991.87
2022-11-16T00:54:23.173Z,991.86
2022-11-16T00:55:24.035Z,991.84
2022-11-16T00:56:23.557Z,991.85
2022-11-16T00:57:23.770Z,991.82
2022-11-16T00:58:24.509Z,991.83
2022-11-16T00:59:24.185Z,991.87
2022-11-16T01:00:24.368Z,991.90
2022-11-16T01:01:24.590Z,991.83
2022-11-16T01:02:24.703Z,991.83
2022-11-16T01:03:25.513Z,991.91
2022-11-16T01:04:26.016Z,991.84
2022-11-16T01:05:25.144Z,991.84
2022-11-16T01:06:25.291Z,991.84
2022-11-16T01:07:25.545Z,991.84
2022-11-16T01:08:25.631Z,991.84
2022-11-16T01:09:26.516Z,991.82
2022-11-16T01:10:26.016Z,991.83
2022-11-16T01:11:27.009Z,991.84
2022-11-16T01:12:26.413Z,991.86
2022-11-16T01:13:27.510Z,991.90
2022-11-16T01:14:27.546Z,991.86
2022-11-16T01:15:26.936Z,991.85
2022-11-16T01:16:27.137Z,991.84
2022-11-16T01:17:28.012Z,991.82
2022-11-16T01:18:27.544Z,991.82
2022-11-16T01:19:27.690Z,991.83
2022-11-16T01:20:27.849Z,991.87
2022-11-16T01:21:28.520Z,991.86
2022-11-16T01:22:29.016Z,991.84
2022-11-16T01:23:29.400Z,991.82
2022-11-16T01:24:28.519Z,991.82
2022-11-16T01:25:28.669Z,991.82
2022-11-16T01:26:29.539Z,991.85
2022-11-16T01:27:29.039Z,991.85
2022-11-16T01:28:29.191Z,991.86
2022-11-16T01:29:29.392Z,991.93
2022-11-16T01:30:29.572Z,991.88
2022-11-16T01:31:29.765Z,991.81
2022-11-16T01:32:29.921Z,991.86
2022-11-16T01:33:30.071Z,991.81
2022-11-16T01:34:30.235Z,991.91
2022-11-16T01:35:30.391Z,991.87
2022-11-16T01:36:30.574Z,991.84
2022-11-16T01:37:30.734Z,991.83
2022-11-16T01:38:31.894Z,991.77
2022-11-16T01:39:31.121Z,991.77
2022-11-16T01:40:32.026Z,991.76
2022-11-16T01:41:31.409Z,991.78
2022-11-16T01:42:32.521Z,991.79
2022-11-16T01:43:32.528Z,991.79
2022-11-16T01:44:31.919Z,991.81
2022-11-16T01:45:32.075Z,991.80
2022-11-16T01:46:32.261Z,991.76
2022-11-16T01:47:32.453Z,991.80
2022-11-16T01:48:33.149Z,991.74
2022-11-16T01:49:33.516Z,991.76
2022-11-16T01:50:32.896Z,991.80
2022-11-16T01:51:33.056Z,991.75
2022-11-16T01:52:33.227Z,991.78
2022-11-16T01:53:33.424Z,991.77
2022-11-16T01:54:33.583Z,991.71
2022-11-16T01:55:33.727Z,991.78
2022-11-16T01:56:33.857Z,991.76
2022-11-16T01:57:34.007Z,991.82
2022-11-16T01:58:34.502Z,991.77
2022-11-16T01:59:34.346Z,991.74
2022-11-16T02:00:34.475Z,991.73
2022-11-16T02:01:34.630Z,991.72
2022-11-16T02:02:34.797Z,991.75
2022-11-16T02:03:34.959Z,991.67
2022-11-16T02:04:35.118Z,991.68
2022-11-16T02:05:35.275Z,991.67
2022-11-16T02:06:35.421Z,991.65
2022-11-16T02:07:35.614Z,991.63
2022-11-16T02:08:36.715Z,991.58
2022-11-16T02:09:35.895Z,991.56
2022-11-16T02:10:36.029Z,991.72
2022-11-16T02:11:36.194Z,991.57
2022-11-16T02:12:36.331Z,991.58
2022-11-16T02:13:36.460Z,991.57
2022-11-16T02:14:37.583Z,991.50
2022-11-16T02:15:36.825Z,991.48
2022-11-16T02:16:36.985Z,991.47
2022-11-16T02:17:38.027Z,991.54
2022-11-16T02:18:38.025Z,991.54
2022-11-16T02:19:37.371Z,991.43
2022-11-16T02:20:37.509Z,991.49
2022-11-16T02:21:38.046Z,991.54
2022-11-16T02:22:37.785Z,991.47
2022-11-16T02:23:38.533Z,991.47
2022-11-16T02:24:38.028Z,991.47
2022-11-16T02:25:38.258Z,991.38
2022-11-16T02:26:38.514Z,991.47
2022-11-16T02:27:38.620Z,991.38
2022-11-16T02:28:38.863Z,991.47
2022-11-16T02:29:38.973Z,991.39
2022-11-16T02:30:39.217Z,991.32
2022-11-16T02:31:40.027Z,991.30
2022-11-16T02:32:39.630Z,991.29
2022-11-16T02:33:39.882Z,991.31
2022-11-16T02:34:41.030Z,991.27
2022-11-16T02:35:40.234Z,991.29
2022-11-16T02:37:13.891Z,991.28
2022-11-16T02:37:40.605Z,991.19
2022-11-16T02:38:40.723Z,991.28
2022-11-16T02:39:41.563Z,991.20
2022-11-16T02:40:42.063Z,991.24
2022-11-16T02:41:41.405Z,991.21
2022-11-16T02:42:41.561Z,991.23
2022-11-16T02:43:41.693Z,991.30
2022-11-16T02:44:41.923Z,991.24
2022-11-16T02:45:42.154Z,991.27
2022-11-16T02:46:42.296Z,991.19
2022-11-16T02:47:42.461Z,991.21
2022-11-16T02:48:42.593Z,991.26
2022-11-16T02:49:42.718Z,991.31
2022-11-16T02:50:42.846Z,991.31
2022-11-16T02:51:43.084Z,991.31
2022-11-16T02:52:43.205Z,991.30
2022-11-16T02:53:43.445Z,991.33
2022-11-16T02:54:43.620Z,991.31
2022-11-16T02:55:43.760Z,991.33
2022-11-16T02:56:43.899Z,991.27
2022-11-16T02:57:44.025Z,991.23
2022-11-16T02:58:44.195Z,991.25
2022-11-16T02:59:45.071Z,991.28
2022-11-16T03:00:44.603Z,991.26
2022-11-16T03:01:44.790Z,991.28
2022-11-16T03:02:45.100Z,991.29
2022-11-16T03:03:45.127Z,991.27
2022-11-16T03:04:45.585Z,991.29
2022-11-16T03:05:45.445Z,991.24
2022-11-16T03:06:45.588Z,991.29
2022-11-16T03:07:45.714Z,991.25
2022-11-16T03:08:45.844Z,991.21
2022-11-16T03:09:45.985Z,991.29
2022-11-16T03:10:46.117Z,991.30
2022-11-16T03:11:46.264Z,991.29
2022-11-16T03:12:46.392Z,991.23
2022-11-16T03:13:46.517Z,991.24
2022-11-16T03:14:46.664Z,991.27
2022-11-16T03:15:46.800Z,991.24
2022-11-16T03:16:47.580Z,991.26
2022-11-16T03:17:47.071Z,991.29
2022-11-16T03:18:47.311Z,991.28
2022-11-16T03:19:47.478Z,991.27
2022-11-16T03:20:47.619Z,991.26
2022-11-16T03:21:47.764Z,991.24
2022-11-16T03:22:47.999Z,991.24
2022-11-16T03:23:48.132Z,991.33
2022-11-16T03:24:48.278Z,991.30
2022-11-16T03:25:49.403Z,991.27
2022-11-16T03:26:49.575Z,991.31
2022-11-16T03:27:48.814Z,991.28
2022-11-16T03:28:48.953Z,991.30
2022-11-16T03:29:49.098Z,991.33
2022-11-16T03:30:49.252Z,991.36
2022-11-16T03:31:49.414Z,991.38
2022-11-16T03:32:50.077Z,991.37
2022-11-16T03:33:49.700Z,991.40
2022-11-16T03:34:49.852Z,991.50
2022-11-16T03:35:50.002Z,991.47
2022-11-16T03:36:50.173Z,991.43
2022-11-16T03:37:50.287Z,991.34
2022-11-16T03:38:50.428Z,991.32
2022-11-16T03:39:50.567Z,991.30
2022-11-16T03:40:50.702Z,991.29
2022-11-16T03:41:50.826Z,991.26
2022-11-16T03:42:51.096Z,991.24
2022-11-16T03:43:51.213Z,991.29
2022-11-16T03:44:51.357Z,991.26
2022-11-16T03:45:51.492Z,991.28
2022-11-16T03:46:51.648Z,991.24
2022-11-16T03:47:51.819Z,991.28
2022-11-16T03:48:51.973Z,991.23
2022-11-16T03:49:52.123Z,991.25
2022-11-16T03:50:52.268Z,991.28
2022-11-16T03:51:52.406Z,991.33
2022-11-16T03:52:52.549Z,991.30
2022-11-16T03:53:52.681Z,991.30
2022-11-16T03:54:53.093Z,991.29
2022-11-16T03:55:52.991Z,991.32
2022-11-16T03:56:53.165Z,991.26
2022-11-16T03:57:53.331Z,991.20
2022-11-16T03:58:53.492Z,991.16
2022-11-16T03:59:53.681Z,991.13
2022-11-16T04:00:53.924Z,991.20
2022-11-16T04:01:54.038Z,991.11
2022-11-16T04:02:54.597Z,991.18
2022-11-16T04:03:54.390Z,991.16
2022-11-16T04:04:54.625Z,991.15
2022-11-16T04:05:54.752Z,991.07
2022-11-16T04:06:54.955Z,991.04
2022-11-16T04:07:55.119Z,991.07
2022-11-16T04:08:55.282Z,991.08
2022-11-16T04:09:55.415Z,990.98
2022-11-16T04:10:55.560Z,991.02
2022-11-16T04:11:56.592Z,991.03
2022-11-16T04:12:56.585Z,990.99
2022-11-16T04:13:56.071Z,990.94
2022-11-16T04:14:57.083Z,990.93
2022-11-16T04:15:56.423Z,990.94
2022-11-16T04:16:56.681Z,990.98
2022-11-16T04:17:56.900Z,991.02
2022-11-16T04:18:58.093Z,991.04
2022-11-16T04:19:58.399Z,991.07
2022-11-16T04:20:58.494Z,991.15
2022-11-16T04:21:57.653Z,991.15
2022-11-16T04:22:58.589Z,991.24
2022-11-16T04:23:57.957Z,991.25
2022-11-16T04:24:58.116Z,991.29
2022-11-16T04:25:58.226Z,991.31
2022-11-16T04:26:58.452Z,991.30
2022-11-16T04:27:58.601Z,991.31
2022-11-16T04:28:58.715Z,991.37
2022-11-16T04:29:59.110Z,991.32
2022-11-16T04:30:58.979Z,991.39
2022-11-16T04:31:59.110Z,991.31
2022-11-16T04:32:59.260Z,991.35
2022-11-16T04:33:59.400Z,991.32
2022-11-16T04:34:59.547Z,991.39
2022-11-16T04:35:59.697Z,991.28
2022-11-16T04:36:59.872Z,991.29
2022-11-16T04:38:00.025Z,991.23
2022-11-16T04:39:00.190Z,991.14
2022-11-16T04:40:00.349Z,991.16
2022-11-16T04:41:00.486Z,991.22
2022-11-16T04:42:00.654Z,991.14
2022-11-16T04:43:00.782Z,991.21
2022-11-16T04:44:00.910Z,991.28
2022-11-16T04:45:01.047Z,991.23
2022-11-16T04:46:01.223Z,991.26
2022-11-16T04:47:01.383Z,991.26
2022-11-16T04:48:01.511Z,991.29
2022-11-16T04:49:01.667Z,991.28
2022-11-16T04:50:01.822Z,991.25
2022-11-16T04:51:01.983Z,991.28
2022-11-16T04:52:02.136Z,991.34
2022-11-16T04:53:02.276Z,991.27
2022-11-16T04:54:02.447Z,991.26
2022-11-16T04:55:02.582Z,991.23
2022-11-16T04:56:03.600Z,991.26
2022-11-16T04:57:02.978Z,991.34
2022-11-16T04:58:03.097Z,991.27
2022-11-16T04:59:03.238Z,991.29
2022-11-16T05:00:04.419Z,991.32
2022-11-16T05:01:03.608Z,991.27
2022-11-16T05:02:04.600Z,991.28
2022-11-16T05:03:03.963Z,991.30
2022-11-16T05:04:04.102Z,991.34
2022-11-16T05:05:04.250Z,991.34
2022-11-16T05:06:37.319Z,991.40
2022-11-16T05:07:04.621Z,991.42
2022-11-16T05:08:04.775Z,991.43
2022-11-16T05:09:05.641Z,991.40
2022-11-16T05:10:05.129Z,991.46
2022-11-16T05:11:05.273Z,991.51
2022-11-16T05:12:05.651Z,991.46
2022-11-16T05:13:06.151Z,991.48
2022-11-16T05:14:05.793Z,991.45
2022-11-16T05:15:05.952Z,991.47
2022-11-16T05:16:06.152Z,991.39
2022-11-16T05:17:06.653Z,991.43
2022-11-16T05:18:07.142Z,991.41
2022-11-16T05:19:07.643Z,991.41
2022-11-16T05:20:07.015Z,991.36
2022-11-16T05:21:07.207Z,991.43
2022-11-16T05:22:07.356Z,991.45
2022-11-16T05:23:07.654Z,991.38
2022-11-16T05:24:07.675Z,991.42
2022-11-16T05:25:08.820Z,991.36
2022-11-16T05:26:08.644Z,991.30
2022-11-16T05:27:08.255Z,991.39
2022-11-16T05:28:08.432Z,991.41
2022-11-16T05:29:09.583Z,991.44
2022-11-16T05:30:08.724Z,991.44
2022-11-16T05:31:08.909Z,991.49
2022-11-16T05:32:09.068Z,991.51
2022-11-16T05:33:09.256Z,991.58
2022-11-16T05:34:09.421Z,991.50
2022-11-16T05:35:10.156Z,991.55
2022-11-16T05:36:09.820Z,991.56
2022-11-16T05:37:09.990Z,991.57
2022-11-16T05:38:10.198Z,991.57
2022-11-16T05:39:10.425Z,991.61
2022-11-16T05:40:10.606Z,991.55
2022-11-16T05:41:10.754Z,991.64
2022-11-16T05:42:11.650Z,991.60
2022-11-16T05:43:11.649Z,991.57
2022-11-16T05:44:11.672Z,991.53
2022-11-16T05:45:11.337Z,991.62
2022-11-16T05:46:11.565Z,991.57
2022-11-16T05:47:11.718Z,991.62
2022-11-16T05:48:11.905Z,991.55
2022-11-16T05:49:12.074Z,991.62
2022-11-16T05:50:13.156Z,991.59
2022-11-16T05:51:12.437Z,991.58
2022-11-16T05:52:12.617Z,991.63
2022-11-16T05:53:12.795Z,991.61
2022-11-16T05:54:12.956Z,991.65
2022-11-16T05:55:13.128Z,991.60
2022-11-16T05:56:13.743Z,991.63
2022-11-16T05:57:13.433Z,991.59
2022-11-16T05:58:13.576Z,991.60
2022-11-16T05:59:16.424Z,991.61
2022-11-16T06:00:14.937Z,991.64
2022-11-16T06:01:14.103Z,991.61
2022-11-16T06:02:15.176Z,991.62
2022-11-16T06:03:14.426Z,991.61
2022-11-16T06:04:14.579Z,991.65
2022-11-16T06:05:14.748Z,991.63
2022-11-16T06:06:14.926Z,991.61
2022-11-16T06:07:15.161Z,991.59
2022-11-16T06:08:15.665Z,991.66
2022-11-16T06:09:15.403Z,991.64
2022-11-16T06:10:15.550Z,991.68
2022-11-16T06:11:15.686Z,991.60
2022-11-16T06:12:15.809Z,991.63
2022-11-16T06:13:16.167Z,991.75
2022-11-16T06:14:16.195Z,991.71
2022-11-16T06:15:16.338Z,991.65
2022-11-16T06:16:16.726Z,991.69
2022-11-16T06:17:16.594Z,991.67
2022-11-16T06:18:16.749Z,991.70
2022-11-16T06:19:16.888Z,991.71
2022-11-16T06:20:17.013Z,991.77
2022-11-16T06:21:17.656Z,991.79
2022-11-16T06:22:17.309Z,991.82
2022-11-16T06:23:17.469Z,991.84
2022-11-16T06:24:17.658Z,991.86
2022-11-16T06:25:17.797Z,991.79
2022-11-16T06:26:17.940Z,991.90
2022-11-16T06:27:18.100Z,991.85
2022-11-16T06:28:19.159Z,991.91
2022-11-16T06:29:18.413Z,992.01
2022-11-16T06:30:18.533Z,991.92
2022-11-16T06:31:19.854Z,991.92
2022-11-16T06:32:19.660Z,992.00
2022-11-16T06:33:19.197Z,991.96
2022-11-16T06:34:19.690Z,992.02
2022-11-16T06:35:19.555Z,991.97
2022-11-16T06:36:19.819Z,992.00
2022-11-16T06:37:20.662Z,992.09
2022-11-16T06:38:20.682Z,992.04
2022-11-16T06:39:20.293Z,992.07
2022-11-16T06:40:21.528Z,992.14
2022-11-16T06:41:20.752Z,992.12
2022-11-16T06:42:20.878Z,992.13
2022-11-16T06:43:21.022Z,992.11
2022-11-16T06:44:21.143Z,992.15
2022-11-16T06:45:22.162Z,992.08
2022-11-16T06:46:21.402Z,992.11
2022-11-16T06:47:22.513Z,992.12
2022-11-16T06:48:21.780Z,992.13
2022-11-16T06:49:21.926Z,992.13
2022-11-16T06:50:22.666Z,992.07
2022-11-16T06:51:23.166Z,992.12
2022-11-16T06:52:23.511Z,992.13
2022-11-16T06:53:27.756Z,992.13
2022-11-16T06:54:24.886Z,992.17
2022-11-16T06:55:23.097Z,992.18
2022-11-16T06:56:23.249Z,992.14
2022-11-16T06:57:23.392Z,992.18
2022-11-16T06:58:23.563Z,992.24
2022-11-16T06:59:23.697Z,992.25
2022-11-16T07:00:24.678Z,992.28
2022-11-16T07:01:24.141Z,992.28
2022-11-16T07:02:24.181Z,992.25
2022-11-16T07:03:24.429Z,992.30
2022-11-16T07:04:24.564Z,992.24
2022-11-16T07:05:24.717Z,992.28
2022-11-16T07:06:24.878Z,992.21
2022-11-16T07:07:25.113Z,992.26
2022-11-16T07:08:25.160Z,992.26
2022-11-16T07:09:25.328Z,992.26
2022-11-16T07:10:26.194Z,992.33
2022-11-16T07:11:25.730Z,992.27
2022-11-16T07:12:25.871Z,992.28
2022-11-16T07:13:26.670Z,992.32
2022-11-16T07:14:26.193Z,992.34
2022-11-16T07:15:26.683Z,992.31
2022-11-16T07:16:27.584Z,992.34
2022-11-16T07:17:26.717Z,992.43
2022-11-16T07:18:27.824Z,992.45
2022-11-16T07:19:27.104Z,992.51
2022-11-16T07:20:27.305Z,992.45
2022-11-16T07:21:27.483Z,992.52
2022-11-16T07:22:27.689Z,992.43
2022-11-16T07:23:27.868Z,992.47
2022-11-16T07:24:28.051Z,992.46
2022-11-16T07:25:28.230Z,992.53
2022-11-16T07:26:28.407Z,992.50
2022-11-16T07:27:28.690Z,992.48
2022-11-16T07:28:29.184Z,992.45
2022-11-16T07:29:28.988Z,992.50
2022-11-16T07:30:29.172Z,992.51
2022-11-16T07:31:29.340Z,992.57
2022-11-16T07:32:29.534Z,992.55
2022-11-16T07:33:29.755Z,992.57
2022-11-16T07:34:30.018Z,992.60
2022-11-16T07:35:30.088Z,992.60
2022-11-16T07:36:30.689Z,992.46
2022-11-16T07:37:31.182Z,992.54
2022-11-16T07:38:30.671Z,992.48
2022-11-16T07:39:30.751Z,992.47
2022-11-16T07:40:30.922Z,992.53
2022-11-16T07:41:31.081Z,992.46
2022-11-16T07:42:31.233Z,992.46
2022-11-16T07:43:32.182Z,992.46
2022-11-16T07:44:31.575Z,992.50
2022-11-16T07:45:31.747Z,992.47
2022-11-16T07:46:48.781Z,992.53
2022-11-16T07:47:34.042Z,992.57
2022-11-16T07:48:32.686Z,992.52
2022-11-16T07:49:32.479Z,992.55
2022-11-16T07:50:32.937Z,992.59
2022-11-16T07:51:32.842Z,992.56
2022-11-16T07:52:33.043Z,992.58
2022-11-16T07:53:33.691Z,992.54
2022-11-16T07:54:33.340Z,992.45
2022-11-16T07:55:34.578Z,992.52
2022-11-16T07:56:33.717Z,992.53
2022-11-16T07:57:33.868Z,992.49
2022-11-16T07:58:34.251Z,992.47
2022-11-16T07:59:34.285Z,992.46
2022-11-16T08:00:34.454Z,992.42
2022-11-16T08:01:34.664Z,992.42
2022-11-16T08:02:35.684Z,992.45
2022-11-16T08:03:34.921Z,992.44
2022-11-16T08:04:35.048Z,992.45
2022-11-16T08:05:35.704Z,992.44
2022-11-16T08:06:35.345Z,992.44
2022-11-16T08:07:35.589Z,992.42
2022-11-16T08:08:36.326Z,992.47
2022-11-16T08:09:36.737Z,992.43
2022-11-16T08:10:36.000Z,992.42
2022-11-16T08:11:36.136Z,992.42
2022-11-16T08:12:36.255Z,992.39
2022-11-16T08:13:36.384Z,992.40
2022-11-16T08:14:37.192Z,992.41
2022-11-16T08:15:36.688Z,992.38
2022-11-16T08:16:37.684Z,992.37
2022-11-16T08:17:37.032Z,992.39
2022-11-16T08:18:37.227Z,992.34
2022-11-16T08:19:37.328Z,992.30
2022-11-16T08:20:38.433Z,992.16
2022-11-16T08:21:37.779Z,992.14
2022-11-16T08:22:38.205Z,992.08
2022-11-16T08:23:38.229Z,992.11
2022-11-16T08:24:38.345Z,992.14
2022-11-16T08:25:39.189Z,992.12
2022-11-16T08:26:38.660Z,992.09
2022-11-16T08:27:39.692Z,991.99
2022-11-16T08:28:39.051Z,991.81
2022-11-16T08:29:39.274Z,991.52
2022-11-16T08:30:39.499Z,991.46
2022-11-16T08:31:40.719Z,991.45
2022-11-16T08:32:39.985Z,991.43
2022-11-16T08:33:40.120Z,991.39
2022-11-16T08:34:40.271Z,991.34
2022-11-16T08:35:41.192Z,991.38
2022-11-16T08:36:40.654Z,991.37
2022-11-16T08:37:40.760Z,991.36
2022-11-16T08:38:40.882Z,991.38
2022-11-16T08:39:41.072Z,991.43
2022-11-16T08:40:41.200Z,991.49
2022-11-16T08:41:42.192Z,991.46
2022-11-16T08:42:43.809Z,991.59
2022-11-16T08:43:42.710Z,991.59
2022-11-16T08:44:41.843Z,991.69
2022-11-16T08:45:41.984Z,991.67
2022-11-16T08:46:42.129Z,991.70
2022-11-16T08:47:42.314Z,991.66
2022-11-16T08:48:42.477Z,991.44
2022-11-16T08:49:46.673Z,991.12
2022-11-16T08:51:15.334Z,991.01
2022-11-16T08:51:45.696Z,990.87
2022-11-16T08:52:43.055Z,990.69
2022-11-16T08:53:44.196Z,990.45
2022-11-16T08:54:43.434Z,990.12
2022-11-16T08:55:43.574Z,989.85
2022-11-16T08:56:43.746Z,989.93
2022-11-16T08:57:44.213Z,989.80
2022-11-16T08:58:44.112Z,989.76
2022-11-16T08:59:44.708Z,989.88
2022-11-16T09:00:45.197Z,989.96
2022-11-16T09:01:44.793Z,989.86
2022-11-16T09:02:44.866Z,989.99
2022-11-16T09:03:45.007Z,989.94
2022-11-16T09:04:45.165Z,989.88
2022-11-16T09:05:45.303Z,990.03
2022-11-16T09:06:45.439Z,990.17
2022-11-16T09:07:45.548Z,990.19
2022-11-16T09:08:45.674Z,990.20
2022-11-16T09:09:45.819Z,990.24
2022-11-16T09:10:45.958Z,990.20
2022-11-16T09:11:46.112Z,990.13
2022-11-16T09:12:46.276Z,990.11
2022-11-16T09:13:46.436Z,990.11
2022-11-16T09:14:46.571Z,989.85
2022-11-16T09:15:46.707Z,989.86
2022-11-16T09:16:46.884Z,989.97
2022-11-16T09:17:47.703Z,989.80
2022-11-16T09:18:47.264Z,989.68
2022-11-16T09:19:47.456Z,989.46
2022-11-16T09:20:47.609Z,989.27
2022-11-16T09:21:47.780Z,989.28
2022-11-16T09:22:48.790Z,989.09
2022-11-16T09:23:48.175Z,989.05
2022-11-16T09:24:49.200Z,989.06
2022-11-16T09:25:48.592Z,989.07
2022-11-16T09:26:48.775Z,989.12
2022-11-16T09:27:48.942Z,989.19
2022-11-16T09:28:49.055Z,989.32
2022-11-16T09:29:49.248Z,989.35
2022-11-16T09:30:49.424Z,989.14
2022-11-16T09:31:49.621Z,989.04
2022-11-16T09:32:49.810Z,988.91
2022-11-16T09:33:49.983Z,988.84
2022-11-16T09:34:50.145Z,988.74
2022-11-16T09:35:50.285Z,988.65
2022-11-16T09:36:50.445Z,988.47
2022-11-16T09:37:50.683Z,988.38
2022-11-16T09:39:52.931Z,988.04
2022-11-16T09:40:51.152Z,987.90
2022-11-16T09:41:51.272Z,987.76
2022-11-16T09:42:51.512Z,987.70
2022-11-16T09:43:51.663Z,987.52
2022-11-16T09:44:52.735Z,987.48
2022-11-16T09:45:51.957Z,987.35
2022-11-16T09:46:52.099Z,987.46
2022-11-16T09:47:52.254Z,987.44
2022-11-16T09:48:52.443Z,987.52
2022-11-16T09:49:52.583Z,987.55
2022-11-16T09:50:53.227Z,987.55
2022-11-16T09:51:53.716Z,987.65
2022-11-16T09:52:53.112Z,987.70
2022-11-16T09:53:53.261Z,987.76
2022-11-16T09:54:53.421Z,987.93
2022-11-16T09:55:53.595Z,987.95
2022-11-16T09:56:53.722Z,988.09
2022-11-16T09:57:54.230Z,988.08
2022-11-16T09:58:53.978Z,987.99
2022-11-16T09:59:54.122Z,987.85
2022-11-16T10:00:54.327Z,987.78
2022-11-16T10:01:55.222Z,987.66
2022-11-16T10:02:54.592Z,987.70
2022-11-16T10:03:54.802Z,987.55
2022-11-16T10:04:58.463Z,987.48
2022-11-16T10:05:56.122Z,987.42
2022-11-16T10:06:56.312Z,987.34
2022-11-16T10:07:55.694Z,987.26
2022-11-16T10:08:55.822Z,987.31
2022-11-16T10:09:55.999Z,987.38
2022-11-16T10:10:56.156Z,987.38
2022-11-16T10:11:56.304Z,987.39
2022-11-16T10:12:56.459Z,987.46
2022-11-16T10:14:01.379Z,987.48
2022-11-16T10:14:58.754Z,987.52
2022-11-16T10:15:57.727Z,987.43
2022-11-16T10:16:57.240Z,987.51
2022-11-16T10:17:57.408Z,987.53
2022-11-16T10:18:58.735Z,987.75
2022-11-16T10:19:57.739Z,987.66
2022-11-16T10:20:57.924Z,987.72
2022-11-16T10:21:58.079Z,987.69
2022-11-16T10:22:58.242Z,987.72
2022-11-16T10:23:58.826Z,987.74
2022-11-16T10:24:58.661Z,987.75
2022-11-16T10:25:58.820Z,987.66
2022-11-16T10:26:59.004Z,987.62
2022-11-16T10:27:59.178Z,987.55
2022-11-16T10:28:59.364Z,987.59
2022-11-16T10:30:00.231Z,987.66
2022-11-16T10:30:59.764Z,987.73
2022-11-16T10:31:59.978Z,987.87
2022-11-16T10:33:00.731Z,988.01
2022-11-16T10:34:33.304Z,988.10
2022-11-16T10:35:00.573Z,988.13
2022-11-16T10:36:01.262Z,988.30
2022-11-16T10:37:00.932Z,988.31
2022-11-16T10:38:01.123Z,988.36
2022-11-16T10:39:01.345Z,988.36
2022-11-16T10:40:01.419Z,988.49
2022-11-16T10:41:01.606Z,988.57
2022-11-16T10:42:07.094Z,988.69
2022-11-16T10:43:04.777Z,988.82
2022-11-16T10:44:02.132Z,988.89
2022-11-16T10:45:02.319Z,988.95
2022-11-16T10:46:02.471Z,989.15
2022-11-16T10:47:02.613Z,989.03
2022-11-16T10:48:03.264Z,988.99
2022-11-16T10:49:03.784Z,988.89
2022-11-16T10:50:03.077Z,988.81
2022-11-16T10:51:03.244Z,988.61
2022-11-16T10:52:03.779Z,988.54
2022-11-16T10:53:03.594Z,988.43
2022-11-16T10:54:03.714Z,988.37
2022-11-16T10:55:03.851Z,988.25
2022-11-16T10:56:04.767Z,988.14
2022-11-16T10:57:04.129Z,988.07
2022-11-16T10:58:04.289Z,988.04
2022-11-16T10:59:04.407Z,987.98
2022-11-16T11:00:06.634Z,987.91
2022-11-16T11:01:05.833Z,987.83
2022-11-16T11:02:04.900Z,987.77
2022-11-16T11:03:05.023Z,987.72
2022-11-16T11:04:05.769Z,987.72
2022-11-16T11:05:05.398Z,987.71
2022-11-16T11:06:05.783Z,987.68
2022-11-16T11:07:05.716Z,987.65
2022-11-16T11:08:05.859Z,987.64
2022-11-16T11:09:06.148Z,987.66
2022-11-16T11:10:06.135Z,987.70
2022-11-16T11:11:06.294Z,987.63
2022-11-16T11:12:07.286Z,987.76
2022-11-16T11:13:07.287Z,987.80
2022-11-16T11:14:06.911Z,987.89
2022-11-16T11:15:07.053Z,988.02
2022-11-16T11:16:07.190Z,988.05
2022-11-16T11:17:07.388Z,988.21
2022-11-16T11:18:07.520Z,988.33
2022-11-16T11:19:07.641Z,988.41
2022-11-16T11:20:08.777Z,988.58
2022-11-16T11:21:08.115Z,988.53
2022-11-16T11:22:08.243Z,988.67
2022-11-16T11:23:08.444Z,988.94
2022-11-16T11:24:42.230Z,988.89
2022-11-16T11:25:11.873Z,989.02
2022-11-16T11:26:09.052Z,989.09
2022-11-16T11:27:09.798Z,989.26
2022-11-16T11:28:09.419Z,989.30
2022-11-16T11:29:10.283Z,989.34
2022-11-16T11:30:09.867Z,989.37
2022-11-16T11:31:09.991Z,989.42
2022-11-16T11:32:10.261Z,989.46
2022-11-16T11:33:10.413Z,989.54
2022-11-16T11:34:10.594Z,989.47
2022-11-16T11:35:10.746Z,989.56
2022-11-16T11:36:10.890Z,989.64
2022-11-16T11:37:11.038Z,989.68
2022-11-16T11:38:11.215Z,989.72
2022-11-16T11:39:11.402Z,989.74
2022-11-16T11:40:11.604Z,989.70
2022-11-16T11:41:11.866Z,989.76
2022-11-16T11:42:12.809Z,989.68
2022-11-16T11:43:16.235Z,989.70
2022-11-16T11:44:14.788Z,989.74
2022-11-16T11:45:13.295Z,989.78
2022-11-16T11:46:13.292Z,989.81
2022-11-16T11:48:13.760Z,989.77
2022-11-16T11:48:14.827Z,989.84
2022-11-16T11:49:13.043Z,989.81
2022-11-16T11:50:13.225Z,989.84
2022-11-16T11:51:13.390Z,989.74
2022-11-16T11:52:13.568Z,989.81
2022-11-16T11:53:13.711Z,989.92
2022-11-16T11:54:13.869Z,989.88
2022-11-16T11:55:15.015Z,989.80
2022-11-16T11:56:14.350Z,989.80
2022-11-16T11:57:14.412Z,989.74
2022-11-16T11:58:14.580Z,989.76
2022-11-16T11:59:15.311Z,989.77
2022-11-16T12:00:15.793Z,989.68
2022-11-16T12:01:16.633Z,989.65
2022-11-16T12:02:15.292Z,989.64
2022-11-16T12:03:15.528Z,989.61
2022-11-16T12:04:15.609Z,989.61
2022-11-16T12:05:15.798Z,989.66
2022-11-16T12:06:15.975Z,989.63
2022-11-16T12:07:16.232Z,989.55
2022-11-16T12:08:17.296Z,989.59
2022-11-16T12:09:17.295Z,989.71
2022-11-16T12:10:16.678Z,989.76
2022-11-16T12:11:16.971Z,989.76
2022-11-16T12:12:16.995Z,989.81
2022-11-16T12:13:17.171Z,989.75
2022-11-16T12:14:17.347Z,989.84
2022-11-16T12:15:17.519Z,989.76
2022-11-16T12:16:17.713Z,989.86
2022-11-16T12:17:18.795Z,989.82
2022-11-16T12:18:18.088Z,989.80
2022-11-16T12:19:18.310Z,989.75
2022-11-16T12:20:18.482Z,989.76
2022-11-16T12:21:18.674Z,989.82
2022-11-16T12:22:18.856Z,989.88
2022-11-16T12:23:20.028Z,989.83
2022-11-16T12:24:19.204Z,989.88
2022-11-16T12:25:20.301Z,989.90
2022-11-16T12:26:20.391Z,989.99
2022-11-16T12:27:19.800Z,990.00
2022-11-16T12:28:19.968Z,989.98
2022-11-16T12:29:20.313Z,989.88
2022-11-16T12:30:20.373Z,989.90
2022-11-16T12:31:20.543Z,989.86